createdAt,value
2023-12-02T00:00:07.262Z,-1.30
2023-12-02T00:02:35.296Z,-1.20
2023-12-02T00:05:03.523Z,-1.20
2023-12-02T00:07:33.025Z,-1.20
2023-12-02T00:10:01.353Z,-1.20
2023-12-02T00:12:29.393Z,-1.30
2023-12-02T00:14:57.503Z,-1.30
2023-12-02T00:17:25.572Z,-1.30
2023-12-02T00:19:53.664Z,-1.30
2023-12-02T00:22:21.848Z,-1.30
2023-12-02T00:24:51.372Z,-1.00
2023-12-02T00:27:20.352Z,-1.20
2023-12-02T00:29:48.577Z,-1.10
2023-12-02T00:32:27.997Z,-1.00
2023-12-02T00:34:58.320Z,-0.90
2023-12-02T00:37:26.844Z,0.40
2023-12-02T00:39:56.316Z,-0.90
2023-12-02T00:42:24.434Z,-0.80
2023-12-02T00:44:52.492Z,-0.80
2023-12-02T00:47:20.694Z,-0.90
2023-12-02T00:49:48.682Z,-0.90
2023-12-02T00:52:16.961Z,-0.90
2023-12-02T00:54:45.673Z,-0.70
2023-12-02T00:57:15.333Z,-0.80
2023-12-02T00:59:43.360Z,-0.80
2023-12-02T01:02:12.160Z,-0.20
2023-12-02T01:04:40.197Z,-0.10
2023-12-02T01:07:08.312Z,-0.70
2023-12-02T01:09:36.363Z,-0.60
2023-12-02T01:12:04.675Z,-0.20
2023-12-02T01:14:34.060Z,-0.40
2023-12-02T01:17:02.265Z,-0.40
2023-12-02T01:19:31.849Z,-0.40
2023-12-02T01:22:02.402Z,-0.30
2023-12-02T01:24:30.636Z,-0.30
2023-12-02T01:26:58.818Z,-0.30
2023-12-02T01:29:26.918Z,-0.30
2023-12-02T01:31:56.640Z,-0.20
2023-12-02T01:34:24.697Z,-0.20
2023-12-02T01:36:55.022Z,-0.20
2023-12-02T01:39:23.057Z,-0.10
2023-12-02T01:41:51.242Z,-0.10
2023-12-02T01:44:19.557Z,0.00
2023-12-02T01:46:47.542Z,0.00
2023-12-02T01:49:17.544Z,1.00
2023-12-02T01:51:45.935Z,0.10
2023-12-02T01:54:14.102Z,0.10
2023-12-02T01:56:42.453Z,0.60
2023-12-02T01:59:13.689Z,0.10
2023-12-02T02:01:41.870Z,0.10
2023-12-02T02:04:10.074Z,0.20
2023-12-02T02:06:40.587Z,0.20
2023-12-02T02:09:08.642Z,0.20
2023-12-02T02:11:36.779Z,0.20
2023-12-02T02:14:04.815Z,0.20
2023-12-02T02:16:33.008Z,0.20
2023-12-02T02:19:01.113Z,0.20
2023-12-02T02:21:30.729Z,0.20
2023-12-02T02:23:58.789Z,0.30
2023-12-02T02:26:26.971Z,0.20
2023-12-02T02:28:55.034Z,0.20
2023-12-02T02:31:23.133Z,0.20
2023-12-02T02:33:51.155Z,0.30
2023-12-02T02:36:19.699Z,0.20
2023-12-02T02:38:49.232Z,0.20
2023-12-02T02:41:17.633Z,0.50
2023-12-02T02:43:45.831Z,0.20
2023-12-02T02:46:15.676Z,0.20
2023-12-02T02:48:44.213Z,0.20
2023-12-02T02:51:12.597Z,0.30
2023-12-02T02:53:40.667Z,0.50
2023-12-02T02:56:11.463Z,0.30
2023-12-02T02:58:39.561Z,0.40
2023-12-02T03:01:08.006Z,0.30
2023-12-02T03:03:36.179Z,0.40
2023-12-02T03:06:05.122Z,0.40
2023-12-02T03:08:33.125Z,0.60
2023-12-02T03:11:01.416Z,0.40
2023-12-02T03:13:30.986Z,0.00
2023-12-02T03:15:59.532Z,0.40
2023-12-02T03:18:27.668Z,0.70
2023-12-02T03:20:55.907Z,0.30
2023-12-02T03:23:23.964Z,0.50
2023-12-02T03:25:52.272Z,1.50
2023-12-02T03:28:20.942Z,0.10
2023-12-02T03:30:50.675Z,0.10
2023-12-02T03:33:18.782Z,0.10
2023-12-02T03:35:46.954Z,0.10
2023-12-02T03:38:15.084Z,0.10
2023-12-02T03:40:43.178Z,0.10
2023-12-02T03:43:11.319Z,0.00
2023-12-02T03:45:39.638Z,0.00
2023-12-02T03:48:09.498Z,-0.10
2023-12-02T03:50:37.822Z,0.00
2023-12-02T03:53:05.957Z,0.00
2023-12-02T03:55:34.101Z,-0.10
2023-12-02T03:58:02.294Z,-0.10
2023-12-02T04:00:30.417Z,-0.10
2023-12-02T04:03:00.780Z,-0.10
2023-12-02T04:05:30.489Z,-0.10
2023-12-02T04:07:58.524Z,-0.10
2023-12-02T04:10:26.744Z,-0.10
2023-12-02T04:12:54.806Z,0.60
2023-12-02T04:15:23.191Z,-0.20
2023-12-02T04:17:51.210Z,-0.20
2023-12-02T04:20:19.599Z,-0.20
2023-12-02T04:22:49.143Z,-0.20
2023-12-02T04:25:17.407Z,-0.20
2023-12-02T04:27:45.387Z,-0.20
2023-12-02T04:30:13.152Z,-0.30
2023-12-02T04:32:41.266Z,-0.30
2023-12-02T04:35:10.431Z,-0.30
2023-12-02T04:37:39.352Z,-0.30
2023-12-02T04:40:12.827Z,-0.30
2023-12-02T04:42:41.553Z,-0.30
2023-12-02T04:45:10.471Z,-0.40
2023-12-02T04:47:38.720Z,-0.40
2023-12-02T04:50:07.533Z,-0.40
2023-12-02T04:52:35.855Z,-0.40
2023-12-02T04:55:03.932Z,-0.40
2023-12-02T04:57:33.418Z,-0.40
2023-12-02T05:00:01.762Z,-0.40
2023-12-02T05:02:29.813Z,-0.40
2023-12-02T05:04:57.781Z,-0.50
2023-12-02T05:07:25.761Z,-0.50
2023-12-02T05:09:53.735Z,-0.60
2023-12-02T05:12:21.888Z,-0.50
2023-12-02T05:14:51.222Z,-0.50
2023-12-02T05:17:19.176Z,-0.60
2023-12-02T05:19:48.336Z,-0.50
2023-12-02T05:22:16.803Z,-0.50
2023-12-02T05:24:44.780Z,-0.60
2023-12-02T05:27:13.890Z,-0.60
2023-12-02T05:29:41.898Z,-0.60
2023-12-02T05:32:11.371Z,-0.60
2023-12-02T05:34:39.472Z,-0.60
2023-12-02T05:37:07.919Z,-0.70
2023-12-02T05:39:37.027Z,-0.70
2023-12-02T05:42:05.839Z,-0.70
2023-12-02T05:44:33.898Z,-0.70
2023-12-02T05:47:02.252Z,-0.70
2023-12-02T05:49:32.375Z,-0.80
2023-12-02T05:52:02.783Z,-0.80
2023-12-02T05:54:30.790Z,0.50
2023-12-02T05:56:58.863Z,-0.80
2023-12-02T05:59:26.839Z,-0.90
2023-12-02T06:01:54.854Z,-0.90
2023-12-02T06:04:22.945Z,-0.80
2023-12-02T06:06:52.431Z,-0.90
2023-12-02T06:09:20.481Z,-0.90
2023-12-02T06:11:48.455Z,-0.80
2023-12-02T06:14:16.448Z,-0.90
2023-12-02T06:16:44.445Z,-0.90
2023-12-02T06:19:13.359Z,-1.00
2023-12-02T06:21:41.480Z,-1.00
2023-12-02T06:24:11.108Z,-1.00
2023-12-02T06:26:39.386Z,-1.10
2023-12-02T06:29:08.063Z,-1.00
2023-12-02T06:31:35.968Z,-1.10
2023-12-02T06:34:05.342Z,-1.10
2023-12-02T06:36:33.425Z,-1.10
2023-12-02T06:39:01.987Z,-1.10
2023-12-02T06:41:31.441Z,-1.10
2023-12-02T06:43:59.520Z,-1.10
2023-12-02T06:46:27.717Z,-1.10
2023-12-02T06:48:55.819Z,-1.10
2023-12-02T06:51:29.490Z,-1.00
2023-12-02T06:53:57.891Z,-1.00
2023-12-02T06:56:27.181Z,0.00
2023-12-02T06:58:56.758Z,-1.10
2023-12-02T07:01:27.522Z,-0.20
2023-12-02T07:03:55.816Z,-1.10
2023-12-02T07:06:24.227Z,-1.10
2023-12-02T07:08:53.056Z,-1.10
2023-12-02T07:11:21.442Z,-1.10
2023-12-02T07:13:49.620Z,-1.10
2023-12-02T07:16:19.713Z,-1.10
2023-12-02T07:18:47.965Z,-1.10
2023-12-02T07:21:16.446Z,-1.10
2023-12-02T07:23:45.950Z,-1.10
2023-12-02T07:26:14.216Z,-1.10
2023-12-02T07:28:43.424Z,-1.10
2023-12-02T07:31:14.831Z,-1.10
2023-12-02T07:33:44.695Z,-1.00
2023-12-02T07:36:13.904Z,-1.00
2023-12-02T07:38:42.704Z,-1.00
2023-12-02T07:41:13.827Z,-0.90
2023-12-02T07:43:41.859Z,-1.00
2023-12-02T07:46:11.111Z,-1.00
2023-12-02T07:48:39.146Z,-1.00
2023-12-02T07:51:09.626Z,-0.90
2023-12-02T07:53:37.664Z,-0.90
2023-12-02T07:56:06.740Z,-0.60
2023-12-02T07:58:35.394Z,-0.90
2023-12-02T08:01:03.642Z,-0.80
2023-12-02T08:03:31.785Z,-0.50
2023-12-02T08:05:59.883Z,-0.80
2023-12-02T08:08:29.307Z,-0.70
2023-12-02T08:10:57.476Z,-0.70
2023-12-02T08:13:25.728Z,-0.70
2023-12-02T08:15:53.844Z,-0.70
2023-12-02T08:18:22.592Z,-0.30
2023-12-02T08:20:50.923Z,-0.60
2023-12-02T08:23:18.988Z,-0.60
2023-12-02T08:25:48.943Z,-0.60
2023-12-02T08:28:17.047Z,0.40
2023-12-02T08:30:45.052Z,-0.50
2023-12-02T08:33:13.049Z,-0.50
2023-12-02T08:35:41.498Z,-0.50
2023-12-02T08:38:09.518Z,-0.50
2023-12-02T08:40:37.637Z,0.40
2023-12-02T08:43:07.078Z,-0.50
2023-12-02T08:45:35.088Z,-0.20
2023-12-02T08:48:03.290Z,-0.40
2023-12-02T08:50:31.475Z,0.30
2023-12-02T08:52:59.979Z,-0.30
2023-12-02T08:55:28.109Z,-0.30
2023-12-02T08:57:56.442Z,-0.20
2023-12-02T09:00:26.538Z,-0.10
2023-12-02T09:02:54.782Z,-0.10
2023-12-02T09:05:23.012Z,0.00
2023-12-02T09:07:51.112Z,0.00
2023-12-02T09:10:19.944Z,0.10
2023-12-02T09:12:47.952Z,0.50
2023-12-02T09:15:43.192Z,0.20
2023-12-02T09:18:12.911Z,0.30
2023-12-02T09:20:45.406Z,0.30
2023-12-02T09:23:14.037Z,0.80
2023-12-02T09:25:43.548Z,0.50
2023-12-02T09:28:23.074Z,0.60
2023-12-02T09:31:12.054Z,0.60
2023-12-02T09:33:41.406Z,0.70
2023-12-02T09:36:27.858Z,0.70
2023-12-02T09:38:55.900Z,1.50
2023-12-02T09:41:35.790Z,0.80
2023-12-02T09:44:13.545Z,0.90
2023-12-02T09:47:02.017Z,0.90
2023-12-02T09:50:03.895Z,1.00
2023-12-02T09:52:46.204Z,1.00
2023-12-02T09:55:18.877Z,1.10
2023-12-02T09:57:50.020Z,1.10
2023-12-02T10:00:27.917Z,1.10
2023-12-02T10:03:14.392Z,2.00
2023-12-02T10:05:54.230Z,1.70
2023-12-02T10:08:27.809Z,1.10
2023-12-02T10:11:04.615Z,1.40
2023-12-02T10:13:44.232Z,1.20
2023-12-02T10:16:16.345Z,1.60
2023-12-02T10:18:53.636Z,1.20
2023-12-02T10:21:23.088Z,1.30
2023-12-02T10:24:03.862Z,1.30
2023-12-02T10:26:37.871Z,1.30
2023-12-02T10:29:16.794Z,1.30
2023-12-02T10:31:55.652Z,1.40
2023-12-02T10:34:31.198Z,1.50
2023-12-02T10:37:01.905Z,1.50
2023-12-02T10:39:38.112Z,1.60
2023-12-02T10:42:06.773Z,1.90
2023-12-02T10:44:36.351Z,2.00
2023-12-02T10:47:07.288Z,1.90
2023-12-02T10:49:37.887Z,2.20
2023-12-02T10:54:42.268Z,2.00
2023-12-02T10:57:11.785Z,2.30
2023-12-02T10:59:45.349Z,2.20
2023-12-02T11:02:26.940Z,2.20
2023-12-02T11:05:08.873Z,2.70
2023-12-02T11:07:36.986Z,2.40
2023-12-02T11:10:06.665Z,3.10
2023-12-02T11:12:40.567Z,2.60
2023-12-02T11:15:11.117Z,3.90
2023-12-02T11:17:43.991Z,2.80
2023-12-02T11:20:21.495Z,2.80
2023-12-02T11:23:22.854Z,2.90
2023-12-02T11:26:21.600Z,2.90
2023-12-02T11:29:13.013Z,3.10
2023-12-02T11:32:07.437Z,3.10
2023-12-02T11:34:49.374Z,2.90
2023-12-02T11:37:31.545Z,3.50
2023-12-02T11:40:18.464Z,3.60
2023-12-02T11:42:58.548Z,3.30
2023-12-02T11:45:38.577Z,3.60
2023-12-02T11:48:21.437Z,3.20
2023-12-02T11:51:04.624Z,3.00
2023-12-02T11:53:53.180Z,3.90
2023-12-02T11:56:24.156Z,2.90
2023-12-02T11:58:55.468Z,3.10
2023-12-02T12:01:39.581Z,2.70
2023-12-02T12:04:37.064Z,3.10
2023-12-02T12:07:19.704Z,2.70
2023-12-02T12:10:00.724Z,2.70
2023-12-02T12:12:30.866Z,3.40
2023-12-02T12:15:02.321Z,2.70
2023-12-02T12:17:31.250Z,3.20
2023-12-02T12:20:00.733Z,3.30
2023-12-02T12:22:36.336Z,3.00
2023-12-02T12:25:06.789Z,2.90
2023-12-02T12:27:35.574Z,2.80
2023-12-02T12:30:03.881Z,3.30
2023-12-02T12:32:32.158Z,3.20
2023-12-02T12:35:00.717Z,4.10
2023-12-02T12:37:30.643Z,3.40
2023-12-02T12:39:58.745Z,3.40
2023-12-02T12:42:28.607Z,4.40
2023-12-02T12:45:00.699Z,3.10
2023-12-02T12:47:31.833Z,4.00
2023-12-02T12:50:05.138Z,3.60
2023-12-02T12:52:39.584Z,3.00
2023-12-02T12:55:12.011Z,4.60
2023-12-02T12:57:56.567Z,4.50
2023-12-02T13:00:28.821Z,3.80
2023-12-02T13:03:22.798Z,3.40
2023-12-02T13:05:59.761Z,3.50
2023-12-02T13:08:35.100Z,4.70
2023-12-02T13:11:18.564Z,4.00
2023-12-02T13:13:56.812Z,3.70
2023-12-02T13:16:25.543Z,3.80
2023-12-02T13:18:56.194Z,3.80
2023-12-02T13:21:26.142Z,3.90
2023-12-02T13:24:15.143Z,4.00
2023-12-02T13:26:43.343Z,4.50
2023-12-02T13:29:15.146Z,5.10
2023-12-02T13:31:43.505Z,4.60
2023-12-02T13:34:27.228Z,5.00
2023-12-02T13:36:56.614Z,5.40
2023-12-02T13:39:28.755Z,4.30
2023-12-02T13:41:58.000Z,4.40
2023-12-02T13:44:32.252Z,4.70
2023-12-02T13:47:06.325Z,4.30
2023-12-02T13:49:42.975Z,4.30
2023-12-02T13:52:33.130Z,4.80
2023-12-02T13:55:16.370Z,4.80
2023-12-02T13:58:09.251Z,4.40
2023-12-02T14:00:50.627Z,5.50
2023-12-02T14:03:38.928Z,5.20
2023-12-02T14:06:11.925Z,4.40
2023-12-02T14:08:41.402Z,5.30
2023-12-02T14:11:15.519Z,4.40
2023-12-02T14:13:49.749Z,5.00
2023-12-02T14:16:34.346Z,4.50
2023-12-02T14:19:53.015Z,4.70
2023-12-02T14:22:40.195Z,4.70
2023-12-02T14:25:40.210Z,4.60
2023-12-02T14:28:28.967Z,4.50
2023-12-02T14:31:12.827Z,4.50
2023-12-02T14:33:56.497Z,4.50
2023-12-02T14:36:43.642Z,4.50
2023-12-02T14:39:36.564Z,5.30
2023-12-02T14:42:13.619Z,4.80
2023-12-02T14:44:43.476Z,4.40
2023-12-02T14:47:13.724Z,5.80
2023-12-02T14:49:45.546Z,4.40
2023-12-02T14:52:13.788Z,4.30
2023-12-02T14:54:46.769Z,4.40
2023-12-02T14:57:17.149Z,4.70
2023-12-02T14:59:45.455Z,4.40
2023-12-02T15:02:36.600Z,5.60
2023-12-02T15:05:07.743Z,4.40
2023-12-02T15:07:43.002Z,4.40
2023-12-02T15:10:16.028Z,4.50
2023-12-02T15:12:50.146Z,4.30
2023-12-02T15:15:41.216Z,4.20
2023-12-02T15:18:15.924Z,4.10
2023-12-02T15:21:03.406Z,5.40
2023-12-02T15:23:39.033Z,4.20
2023-12-02T15:26:12.175Z,4.40
2023-12-02T15:28:51.589Z,4.60
2023-12-02T15:31:27.205Z,4.00
2023-12-02T15:33:57.738Z,3.90
2023-12-02T15:36:29.097Z,3.90
2023-12-02T15:38:59.605Z,4.70
2023-12-02T15:41:28.125Z,4.00
2023-12-02T15:44:00.258Z,3.90
2023-12-02T15:46:30.212Z,4.00
2023-12-02T15:49:02.241Z,4.30
2023-12-02T15:51:33.380Z,5.20
2023-12-02T15:54:26.007Z,5.20
2023-12-02T15:57:03.454Z,3.80
2023-12-02T15:59:32.905Z,4.30
2023-12-02T16:02:05.451Z,5.10
2023-12-02T16:04:34.339Z,4.50
2023-12-02T16:07:04.775Z,3.80
2023-12-02T16:09:33.173Z,4.10
2023-12-02T16:12:01.375Z,3.80
2023-12-02T16:14:29.562Z,5.20
2023-12-02T16:16:58.833Z,3.70
2023-12-02T16:19:27.860Z,3.70
2023-12-02T16:21:57.169Z,4.70
2023-12-02T16:24:28.534Z,3.70
2023-12-02T16:26:56.887Z,4.00
2023-12-02T16:29:25.073Z,4.10
2023-12-02T16:31:53.600Z,3.90
2023-12-02T16:34:22.126Z,3.80
2023-12-02T16:36:52.013Z,3.80
2023-12-02T16:39:20.154Z,3.80
2023-12-02T16:41:49.594Z,3.80
2023-12-02T16:44:17.946Z,3.90
2023-12-02T16:46:46.080Z,5.10
2023-12-02T16:49:19.487Z,4.00
2023-12-02T16:51:47.869Z,4.30
2023-12-02T16:54:16.672Z,3.90
2023-12-02T16:56:44.998Z,3.90
2023-12-02T16:59:48.784Z,4.50
2023-12-02T17:02:27.952Z,4.00
2023-12-02T17:04:56.171Z,4.00
2023-12-02T17:07:24.415Z,4.30
2023-12-02T17:09:52.553Z,4.00
2023-12-02T17:12:20.796Z,4.80
2023-12-02T17:14:50.526Z,4.00
2023-12-02T17:17:24.862Z,4.00
2023-12-02T17:19:53.015Z,4.10
2023-12-02T17:22:21.299Z,4.40
2023-12-02T17:24:49.394Z,4.10
2023-12-02T17:27:42.700Z,4.00
2023-12-02T17:30:13.589Z,4.00
2023-12-02T17:32:41.836Z,3.90
2023-12-02T17:35:10.450Z,4.50
2023-12-02T17:37:38.505Z,4.00
2023-12-02T17:40:07.703Z,4.50
2023-12-02T17:42:35.811Z,4.00
2023-12-02T17:45:04.419Z,4.60
2023-12-02T17:47:34.897Z,4.00
2023-12-02T17:50:03.215Z,4.50
2023-12-02T17:52:32.503Z,4.00
2023-12-02T17:55:00.721Z,4.70
2023-12-02T17:57:28.773Z,4.40
2023-12-02T17:59:56.866Z,4.30
2023-12-02T18:02:24.909Z,4.40
2023-12-02T18:04:54.544Z,4.20
2023-12-02T18:07:23.112Z,3.80
2023-12-02T18:09:51.271Z,4.10
2023-12-02T18:12:19.426Z,5.10
2023-12-02T18:14:47.500Z,4.00
2023-12-02T18:17:18.435Z,4.00
2023-12-02T18:19:46.509Z,4.00
2023-12-02T18:22:18.428Z,5.20
2023-12-02T18:24:46.596Z,4.30
2023-12-02T18:27:16.784Z,4.10
2023-12-02T18:29:44.976Z,4.00
2023-12-02T18:32:22.512Z,5.00
2023-12-02T18:34:50.744Z,4.10
2023-12-02T18:37:27.857Z,4.40
2023-12-02T18:39:56.046Z,4.20
2023-12-02T18:42:24.269Z,5.00
2023-12-02T18:44:52.669Z,4.80
2023-12-02T18:47:20.835Z,4.00
2023-12-02T18:49:49.738Z,5.20
2023-12-02T18:52:19.734Z,4.30
2023-12-02T18:54:47.852Z,4.40
2023-12-02T18:57:16.168Z,3.70
2023-12-02T18:59:44.413Z,4.90
2023-12-02T19:02:12.630Z,3.90
2023-12-02T19:04:40.727Z,4.40
2023-12-02T19:07:09.755Z,4.90
2023-12-02T19:09:39.316Z,3.90
2023-12-02T19:12:08.519Z,5.00
2023-12-02T19:14:36.674Z,3.90
2023-12-02T19:17:07.912Z,5.10
2023-12-02T19:19:36.178Z,4.00
2023-12-02T19:22:04.634Z,4.00
2023-12-02T19:24:32.921Z,4.00
2023-12-02T19:27:02.844Z,4.50
2023-12-02T19:29:31.169Z,4.40
2023-12-02T19:31:59.573Z,4.00
2023-12-02T19:34:31.458Z,4.60
2023-12-02T19:37:02.096Z,5.30
2023-12-02T19:39:30.823Z,3.90
2023-12-02T19:41:59.300Z,4.40
2023-12-02T19:44:29.684Z,4.30
2023-12-02T19:46:58.904Z,4.60
2023-12-02T19:49:27.256Z,3.80
2023-12-02T19:51:55.715Z,3.90
2023-12-02T19:54:24.893Z,3.90
2023-12-02T19:56:53.202Z,4.40
2023-12-02T20:00:03.563Z,4.10
2023-12-02T20:02:31.975Z,4.00
2023-12-02T20:05:01.040Z,4.10
2023-12-02T20:07:32.460Z,4.10
2023-12-02T20:10:00.793Z,4.10
2023-12-02T20:12:28.979Z,4.10
2023-12-02T20:14:58.853Z,3.20
2023-12-02T20:17:27.040Z,4.10
2023-12-02T20:19:55.436Z,4.10
2023-12-02T20:22:23.667Z,3.90
2023-12-02T20:24:51.884Z,4.10
2023-12-02T20:27:22.959Z,4.20
2023-12-02T20:29:51.276Z,4.10
2023-12-02T20:32:25.486Z,4.50
2023-12-02T20:34:53.893Z,4.10
2023-12-02T20:37:22.072Z,4.30
2023-12-02T20:39:50.275Z,4.20
2023-12-02T20:42:18.963Z,4.00
2023-12-02T20:44:47.626Z,3.90
2023-12-02T20:47:15.899Z,5.00
2023-12-02T20:49:45.617Z,4.00
2023-12-02T20:52:13.792Z,4.70
2023-12-02T20:54:42.004Z,4.20
2023-12-02T20:57:10.318Z,5.30
2023-12-02T20:59:38.508Z,5.10
2023-12-02T21:02:06.719Z,4.10
2023-12-02T21:04:35.925Z,4.90
2023-12-02T21:07:08.121Z,4.30
2023-12-02T21:09:37.155Z,4.00
2023-12-02T21:12:05.820Z,4.70
2023-12-02T21:14:34.038Z,3.90
2023-12-02T21:17:02.401Z,4.10
2023-12-02T21:19:30.934Z,3.90
2023-12-02T21:21:59.032Z,4.00
2023-12-02T21:24:28.672Z,4.00
2023-12-02T21:26:56.794Z,4.30
2023-12-02T21:29:25.095Z,3.90
2023-12-02T21:31:53.229Z,4.00
2023-12-02T21:34:22.504Z,3.70
2023-12-02T21:36:51.336Z,5.20
2023-12-02T21:39:22.617Z,4.70
2023-12-02T21:41:52.134Z,4.10
2023-12-02T21:44:20.283Z,4.20
2023-12-02T21:46:49.730Z,3.90
2023-12-02T21:49:20.907Z,4.60
2023-12-02T21:51:51.485Z,3.90
2023-12-02T21:54:21.222Z,4.00
2023-12-02T21:56:53.239Z,4.20
2023-12-02T21:59:23.049Z,4.00
2023-12-02T22:01:53.325Z,4.00
2023-12-02T22:04:23.683Z,4.40
2023-12-02T22:06:52.487Z,4.10
2023-12-02T22:09:41.929Z,4.40
2023-12-02T22:12:41.650Z,3.90
2023-12-02T22:15:21.453Z,3.90
2023-12-02T22:17:49.618Z,5.10
2023-12-02T22:20:22.204Z,3.70
2023-12-02T22:23:01.940Z,3.80
2023-12-02T22:25:31.750Z,3.80
2023-12-02T22:28:06.557Z,3.80
2023-12-02T22:30:43.638Z,3.70
2023-12-02T22:33:13.728Z,3.70
2023-12-02T22:35:43.945Z,3.70
2023-12-02T22:38:18.968Z,4.00
2023-12-02T22:40:48.312Z,4.50
2023-12-02T22:43:27.104Z,3.70
2023-12-02T22:45:55.489Z,3.80
2023-12-02T22:48:38.707Z,4.10
2023-12-02T22:51:08.760Z,3.50
2023-12-02T22:53:39.408Z,3.50
2023-12-02T22:56:09.264Z,3.80
2023-12-02T22:58:45.003Z,3.50
2023-12-02T23:01:29.651Z,3.50
2023-12-02T23:03:59.131Z,4.40
2023-12-02T23:06:30.855Z,4.40
2023-12-02T23:08:59.532Z,3.50
2023-12-02T23:11:49.334Z,3.80
2023-12-02T23:14:40.600Z,3.50
2023-12-02T23:17:12.821Z,3.50
2023-12-02T23:19:41.528Z,3.50
2023-12-02T23:22:10.577Z,3.50
2023-12-02T23:24:39.846Z,4.10
2023-12-02T23:27:10.341Z,3.70
2023-12-02T23:29:40.059Z,3.50
2023-12-02T23:32:08.384Z,4.90
2023-12-02T23:34:36.667Z,3.60
2023-12-02T23:37:05.322Z,3.90
2023-12-02T23:39:33.762Z,3.60
2023-12-02T23:42:04.532Z,3.70
2023-12-02T23:44:45.045Z,3.60
2023-12-02T23:47:17.632Z,3.70
2023-12-02T23:49:45.795Z,3.70
2023-12-02T23:52:14.776Z,3.80
2023-12-02T23:54:43.013Z,3.80
2023-12-02T23:57:11.198Z,3.80
2023-12-02T23:59:40.973Z,4.50
